createdAt,value
2022-09-05T00:01:41.365Z,2.85
2022-09-05T00:04:25.321Z,3.20
2022-09-05T00:07:03.176Z,2.95
2022-09-05T00:09:45.218Z,2.90
2022-09-05T00:12:13.783Z,3.17
2022-09-05T00:15:17.392Z,3.00
2022-09-05T00:20:21.979Z,2.50
2022-09-05T00:24:20.906Z,2.90
2022-09-05T00:24:36.442Z,2.80
2022-09-05T00:27:19.801Z,2.60
2022-09-05T00:31:07.269Z,2.70
2022-09-05T00:33:17.211Z,2.72
2022-09-05T00:36:21.225Z,2.38
2022-09-05T00:39:02.973Z,3.03
2022-09-05T00:41:34.176Z,2.88
2022-09-05T00:44:03.214Z,2.70
2022-09-05T00:46:34.838Z,3.27
2022-09-05T00:49:13.366Z,2.63
2022-09-05T00:52:00.866Z,2.90
2022-09-05T00:54:46.209Z,2.60
2022-09-05T00:57:35.887Z,2.65
2022-09-05T01:00:17.946Z,2.53
2022-09-05T01:03:10.253Z,2.50
2022-09-05T01:06:04.848Z,2.65
2022-09-05T01:09:07.942Z,2.60
2022-09-05T01:11:46.912Z,2.83
2022-09-05T01:14:39.981Z,2.88
2022-09-05T01:17:44.134Z,2.50
2022-09-05T01:20:43.809Z,2.70
2022-09-05T01:23:18.379Z,2.42
2022-09-05T01:26:20.428Z,2.92
2022-09-05T01:29:18.418Z,2.80
2022-09-05T01:32:10.404Z,2.65
2022-09-05T01:35:03.972Z,3.00
2022-09-05T01:37:57.347Z,2.65
2022-09-05T01:40:44.301Z,2.72
2022-09-05T01:43:39.912Z,2.72
2022-09-05T01:46:17.847Z,2.92
2022-09-05T01:49:37.293Z,2.88
2022-09-05T01:52:57.135Z,3.00
2022-09-05T01:56:04.353Z,2.70
2022-09-05T01:58:46.741Z,2.47
2022-09-05T02:01:44.894Z,3.00
2022-09-05T02:04:24.877Z,2.92
2022-09-05T02:07:30.204Z,2.90
2022-09-05T02:10:07.232Z,2.88
2022-09-05T02:12:58.426Z,2.60
2022-09-05T02:15:52.290Z,3.20
2022-09-05T02:18:48.450Z,2.72
2022-09-05T02:21:33.503Z,2.85
2022-09-05T02:24:29.490Z,3.00
2022-09-05T02:28:04.004Z,3.00
2022-09-05T02:30:33.992Z,3.13
2022-09-05T02:33:03.593Z,2.85
2022-09-05T02:35:53.326Z,2.92
2022-09-05T02:41:40.507Z,3.17
2022-09-05T02:45:11.149Z,3.50
2022-09-05T02:45:20.006Z,3.00
2022-09-05T02:47:52.097Z,2.90
2022-09-05T02:57:23.937Z,2.65
2022-09-05T02:57:41.945Z,3.15
2022-09-05T02:57:42.130Z,3.00
2022-09-05T02:59:53.777Z,3.10
2022-09-05T03:02:27.267Z,3.10
2022-09-05T03:05:04.754Z,3.30
2022-09-05T03:08:02.436Z,3.53
2022-09-05T03:10:56.774Z,3.58
2022-09-05T03:13:48.979Z,3.83
2022-09-05T03:16:47.167Z,3.55
2022-09-05T03:19:33.116Z,3.22
2022-09-05T03:22:23.114Z,3.22
2022-09-05T03:25:24.173Z,3.42
2022-09-05T03:27:53.465Z,3.20
2022-09-05T03:30:26.148Z,4.00
2022-09-05T03:33:08.285Z,3.80
2022-09-05T03:35:59.470Z,3.85
2022-09-05T03:38:31.595Z,4.03
2022-09-05T03:41:09.661Z,3.40
2022-09-05T03:43:54.470Z,3.72
2022-09-05T03:46:40.642Z,4.22
2022-09-05T03:50:40.175Z,3.80
2022-09-05T03:57:10.993Z,3.47
2022-09-05T03:57:24.630Z,3.35
2022-09-05T03:58:11.928Z,4.07
2022-09-05T04:01:22.671Z,3.58
2022-09-05T04:08:10.062Z,3.75
2022-09-05T04:08:16.626Z,3.95
2022-09-05T04:09:59.291Z,3.70
2022-09-05T04:12:47.311Z,3.90
2022-09-05T04:15:34.518Z,3.92
2022-09-05T04:18:11.706Z,3.35
2022-09-05T04:20:47.912Z,3.60
2022-09-05T04:23:29.478Z,3.83
2022-09-05T04:26:27.060Z,3.75
2022-09-05T04:29:04.211Z,3.65
2022-09-05T04:31:39.783Z,3.90
2022-09-05T04:34:43.079Z,3.92
2022-09-05T04:37:10.980Z,3.70
2022-09-05T04:39:37.704Z,3.55
2022-09-05T04:42:38.556Z,3.50
2022-09-05T04:45:17.510Z,3.95
2022-09-05T04:47:55.037Z,3.85
2022-09-05T04:50:24.962Z,3.60
2022-09-05T04:53:20.097Z,4.20
2022-09-05T04:55:51.416Z,3.53
2022-09-05T04:59:25.608Z,3.90
2022-09-05T05:06:01.607Z,3.55
2022-09-05T05:06:11.031Z,4.72
2022-09-05T05:07:33.133Z,4.25
2022-09-05T05:11:57.765Z,4.47
2022-09-05T05:18:03.864Z,3.88
2022-09-05T05:18:15.635Z,3.90
2022-09-05T05:19:05.134Z,3.97
2022-09-05T05:21:34.352Z,4.57
2022-09-05T05:24:12.997Z,4.90
2022-09-05T05:26:56.924Z,4.03
2022-09-05T05:29:36.699Z,4.22
2022-09-05T05:32:04.970Z,4.30
2022-09-05T05:34:41.636Z,4.93
2022-09-05T05:37:25.277Z,3.97
2022-09-05T05:40:05.229Z,4.05
2022-09-05T05:42:32.780Z,4.53
2022-09-05T05:44:59.874Z,4.20
2022-09-05T05:47:36.061Z,5.20
2022-09-05T05:50:23.928Z,4.80
2022-09-05T05:52:59.618Z,4.60
2022-09-05T05:56:05.382Z,5.03
2022-09-05T05:58:50.198Z,5.05
2022-09-05T06:01:37.379Z,4.63
2022-09-05T06:04:45.132Z,4.93
2022-09-05T06:08:39.954Z,4.97
2022-09-05T06:14:52.494Z,5.10
2022-09-05T06:15:02.642Z,4.80
2022-09-05T06:17:28.241Z,4.55
2022-09-05T06:22:06.614Z,4.90
2022-09-05T06:23:41.667Z,4.63
2022-09-05T06:26:49.410Z,4.50
2022-09-05T06:29:55.672Z,5.22
2022-09-05T06:32:56.893Z,5.60
2022-09-05T06:35:37.989Z,4.80
2022-09-05T06:40:53.499Z,5.28
2022-09-05T06:43:32.244Z,5.60
2022-09-05T06:46:41.578Z,5.10
2022-09-05T06:49:30.644Z,6.40
2022-09-05T06:52:28.560Z,6.40
2022-09-05T06:55:17.785Z,5.70
2022-09-05T06:58:05.592Z,6.47
2022-09-05T07:00:34.054Z,5.88
2022-09-05T07:03:19.180Z,5.93
2022-09-05T07:05:58.766Z,6.18
2022-09-05T07:08:48.195Z,5.60
2022-09-05T07:11:25.651Z,5.18
2022-09-05T07:14:09.461Z,5.28
2022-09-05T07:16:55.111Z,4.75
2022-09-05T07:19:28.600Z,5.03
2022-09-05T07:22:47.925Z,4.88
2022-09-05T07:25:30.360Z,4.50
2022-09-05T07:28:29.806Z,4.70
2022-09-05T07:31:09.122Z,4.57
2022-09-05T07:33:39.403Z,4.40
2022-09-05T07:36:10.672Z,4.57
2022-09-05T07:38:54.859Z,5.00
2022-09-05T07:41:35.030Z,4.60
2022-09-05T07:44:22.279Z,3.65
2022-09-05T07:46:56.287Z,3.40
2022-09-05T07:49:28.690Z,4.07
2022-09-05T07:57:02.241Z,3.88
2022-09-05T07:57:10.686Z,4.15
2022-09-05T07:57:52.241Z,4.28
2022-09-05T08:00:27.105Z,3.83
2022-09-05T08:03:08.469Z,3.80
2022-09-05T08:05:43.831Z,4.40
2022-09-05T08:08:16.562Z,3.70
2022-09-05T08:11:22.137Z,3.33
2022-09-05T08:13:42.675Z,4.00
2022-09-05T08:16:17.533Z,4.15
2022-09-05T08:18:50.205Z,3.80
2022-09-05T08:21:48.833Z,3.80
2022-09-05T08:24:48.740Z,3.90
2022-09-05T08:27:24.390Z,3.42
2022-09-05T08:30:26.131Z,3.85
2022-09-05T08:33:10.453Z,3.33
2022-09-05T08:36:01.645Z,3.03
2022-09-05T08:38:40.638Z,3.47
2022-09-05T08:41:07.547Z,3.17
2022-09-05T08:46:35.641Z,3.85
2022-09-05T08:46:49.033Z,3.55
2022-09-05T08:49:39.431Z,3.20
2022-09-05T08:52:22.856Z,3.50
2022-09-05T08:55:11.183Z,3.78
2022-09-05T08:57:47.004Z,3.40
2022-09-05T09:00:24.569Z,3.50
2022-09-05T09:03:11.846Z,3.30
2022-09-05T09:06:12.499Z,3.15
2022-09-05T09:08:43.105Z,2.80
2022-09-05T09:11:22.041Z,3.00
2022-09-05T09:14:30.125Z,3.17
2022-09-05T09:17:16.077Z,3.30
2022-09-05T09:19:58.570Z,2.85
2022-09-05T09:22:34.936Z,2.75
2022-09-05T09:25:12.044Z,2.67
2022-09-05T09:28:48.673Z,3.20
2022-09-05T09:30:41.641Z,3.00
2022-09-05T09:33:15.263Z,2.50
2022-09-05T09:35:59.462Z,2.83
2022-09-05T09:39:11.923Z,2.60
2022-09-05T09:41:55.628Z,2.17
2022-09-05T09:44:46.734Z,2.67
2022-09-05T09:47:19.074Z,2.40
2022-09-05T09:50:20.833Z,2.17
2022-09-05T09:53:13.256Z,2.38
2022-09-05T09:56:10.862Z,2.45
2022-09-05T09:59:06.418Z,2.45
2022-09-05T10:04:29.477Z,2.60
2022-09-05T10:11:00.443Z,1.80
2022-09-05T10:11:54.347Z,2.20
2022-09-05T10:14:49.408Z,2.45
2022-09-05T10:17:27.323Z,2.30
2022-09-05T10:20:13.310Z,2.13
2022-09-05T10:22:45.579Z,1.75
2022-09-05T10:25:47.148Z,1.95
2022-09-05T10:28:43.067Z,1.70
2022-09-05T10:33:24.249Z,2.20
2022-09-05T10:35:14.036Z,2.20
2022-09-05T10:37:18.921Z,1.55
2022-09-05T10:39:51.310Z,1.63
2022-09-05T10:42:30.190Z,1.85
2022-09-05T10:47:42.752Z,1.80
2022-09-05T10:50:36.135Z,1.98
2022-09-05T10:53:15.339Z,2.10
2022-09-05T10:56:00.509Z,1.75
2022-09-05T10:59:17.905Z,1.90
2022-09-05T11:02:27.083Z,2.10
2022-09-05T11:04:46.636Z,1.77
2022-09-05T11:07:54.238Z,1.80
2022-09-05T11:10:51.205Z,1.85
2022-09-05T11:13:39.533Z,1.77
2022-09-05T11:16:20.478Z,1.40
2022-09-05T11:19:29.926Z,1.50
2022-09-05T11:22:13.823Z,1.60
2022-09-05T11:24:57.262Z,1.70
2022-09-05T11:27:36.938Z,1.77
2022-09-05T11:30:07.855Z,1.85
2022-09-05T11:38:35.500Z,1.75
2022-09-05T11:39:51.149Z,1.70
2022-09-05T11:40:04.704Z,1.80
2022-09-05T11:41:57.821Z,1.90
2022-09-05T11:44:27.376Z,1.73
2022-09-05T11:47:28.216Z,1.40
2022-09-05T11:49:49.289Z,2.10
2022-09-05T11:52:40.725Z,1.77
2022-09-05T11:55:36.790Z,1.48
2022-09-05T11:58:53.797Z,1.50
2022-09-05T12:01:44.163Z,1.10
2022-09-05T12:04:39.141Z,1.15
2022-09-05T12:07:31.657Z,1.13
2022-09-05T12:10:46.838Z,1.27
2022-09-05T12:13:48.055Z,1.33
2022-09-05T12:16:20.319Z,1.70
2022-09-05T12:19:18.674Z,1.50
2022-09-05T12:22:16.470Z,1.40
2022-09-05T12:25:18.731Z,1.77
2022-09-05T12:28:40.436Z,1.27
2022-09-05T12:32:58.075Z,1.60
2022-09-05T12:36:12.246Z,1.55
2022-09-05T12:39:52.163Z,1.60
2022-09-05T12:41:34.468Z,1.52
2022-09-05T12:44:36.697Z,1.20
2022-09-05T12:46:09.585Z,1.58
2022-09-05T12:49:07.200Z,1.90
2022-09-05T12:51:47.106Z,1.52
2022-09-05T12:54:34.664Z,1.45
2022-09-05T13:00:56.197Z,1.73
2022-09-05T13:03:01.345Z,1.30
2022-09-05T13:03:09.658Z,1.35
2022-09-05T13:06:05.366Z,1.30
2022-09-05T13:08:59.529Z,1.27
2022-09-05T13:14:47.710Z,1.30
2022-09-05T13:14:55.288Z,1.40
2022-09-05T13:17:16.672Z,1.40
2022-09-05T13:19:51.202Z,1.00
2022-09-05T13:22:24.064Z,1.10
2022-09-05T13:25:07.346Z,1.00
2022-09-05T13:27:40.803Z,1.08
2022-09-05T13:31:24.835Z,1.10
2022-09-05T13:38:19.331Z,1.35
2022-09-05T13:38:29.295Z,1.30
2022-09-05T13:39:11.635Z,1.17
2022-09-05T13:41:46.454Z,1.20
2022-09-05T13:44:27.347Z,1.10
2022-09-05T13:46:59.088Z,1.08
2022-09-05T13:49:29.391Z,1.45
2022-09-05T13:52:26.294Z,1.20
2022-09-05T13:55:10.672Z,1.42
2022-09-05T13:57:44.685Z,1.00
2022-09-05T14:00:27.553Z,1.30
2022-09-05T14:03:39.137Z,1.10
2022-09-05T14:06:45.180Z,1.10
2022-09-05T14:09:43.228Z,1.08
2022-09-05T14:12:32.146Z,0.98
2022-09-05T14:15:13.677Z,1.10
2022-09-05T14:18:58.080Z,0.88
2022-09-05T14:21:28.927Z,1.17
2022-09-05T14:24:12.512Z,1.35
2022-09-05T14:26:48.061Z,1.10
2022-09-05T14:29:20.523Z,1.33
2022-09-05T14:37:43.766Z,1.02
2022-09-05T14:37:46.472Z,1.35
2022-09-05T14:38:15.271Z,1.20
2022-09-05T14:41:20.510Z,1.02
2022-09-05T14:44:08.327Z,2.03
2022-09-05T14:47:34.972Z,1.30
2022-09-05T14:50:17.631Z,1.00
2022-09-05T14:57:23.814Z,1.13
2022-09-05T15:02:53.353Z,1.10
2022-09-05T15:03:00.862Z,1.08
2022-09-05T15:05:15.971Z,1.08
2022-09-05T15:07:51.137Z,1.00
2022-09-05T15:12:21.379Z,1.02
2022-09-05T15:13:24.809Z,1.08
2022-09-05T15:16:02.413Z,0.95
2022-09-05T15:18:39.837Z,1.15
2022-09-05T15:21:38.187Z,1.50
2022-09-05T15:24:14.185Z,1.40
2022-09-05T15:27:01.803Z,1.20
2022-09-05T15:29:34.450Z,1.00
2022-09-05T15:32:22.534Z,1.30
2022-09-05T15:34:54.768Z,1.30
2022-09-05T15:37:22.451Z,1.00
2022-09-05T15:40:07.690Z,1.20
2022-09-05T15:42:51.440Z,1.25
2022-09-05T15:45:25.117Z,1.15
2022-09-05T15:48:26.561Z,1.17
2022-09-05T15:51:11.333Z,1.00
2022-09-05T15:53:40.806Z,1.02
2022-09-05T15:56:10.088Z,1.20
2022-09-05T15:58:53.241Z,1.08
2022-09-05T16:01:59.948Z,1.23
2022-09-05T16:10:21.498Z,1.23
2022-09-05T16:10:43.466Z,1.40
2022-09-05T16:10:48.477Z,1.35
2022-09-05T16:12:58.928Z,1.40
2022-09-05T16:16:50.135Z,1.25
2022-09-05T16:23:24.939Z,1.38
2022-09-05T16:23:31.433Z,1.40
2022-09-05T16:24:05.782Z,1.42
2022-09-05T16:26:46.531Z,1.30
2022-09-05T16:29:26.762Z,1.48
2022-09-05T16:31:59.727Z,1.73
2022-09-05T16:35:10.658Z,1.63
2022-09-05T16:37:39.534Z,1.90
2022-09-05T16:40:14.353Z,2.28
2022-09-05T16:42:51.351Z,1.50
2022-09-05T16:45:25.135Z,1.20
2022-09-05T16:48:02.456Z,1.58
2022-09-05T16:50:35.788Z,1.42
2022-09-05T16:53:30.444Z,1.48
2022-09-05T16:56:03.216Z,1.80
2022-09-05T16:58:49.021Z,1.30
2022-09-05T17:01:40.557Z,1.30
2022-09-05T17:04:20.657Z,1.50
2022-09-05T17:07:17.800Z,1.50
2022-09-05T17:09:45.985Z,1.45
2022-09-05T17:12:26.503Z,1.37
2022-09-05T17:20:20.179Z,1.63
2022-09-05T17:29:16.124Z,1.80
2022-09-05T17:29:27.390Z,1.63
2022-09-05T17:29:46.907Z,1.60
2022-09-05T17:31:55.915Z,1.60
2022-09-05T17:34:37.684Z,1.60
2022-09-05T17:37:14.793Z,1.48
2022-09-05T17:39:55.170Z,1.52
2022-09-05T17:42:32.712Z,1.50
2022-09-05T17:45:25.331Z,1.80
2022-09-05T17:47:55.650Z,1.90
2022-09-05T17:50:25.294Z,1.73
2022-09-05T17:52:56.266Z,1.88
2022-09-05T17:55:49.136Z,1.52
2022-09-05T17:58:49.591Z,1.67
2022-09-05T18:01:26.776Z,1.60
2022-09-05T18:03:54.358Z,1.60
2022-09-05T18:06:33.184Z,1.65
2022-09-05T18:09:08.801Z,1.55
2022-09-05T18:11:44.622Z,1.40
2022-09-05T18:14:24.648Z,1.60
2022-09-05T18:17:37.280Z,1.58
2022-09-05T18:19:43.893Z,1.70
2022-09-05T18:22:25.410Z,1.60
2022-09-05T18:25:13.930Z,1.65
2022-09-05T18:28:04.767Z,2.45
2022-09-05T18:30:37.111Z,2.00
2022-09-05T18:33:55.488Z,1.90
2022-09-05T18:35:56.064Z,1.83
2022-09-05T18:38:50.400Z,1.80
2022-09-05T18:41:21.771Z,1.70
2022-09-05T18:44:13.928Z,1.40
2022-09-05T18:46:51.727Z,1.70
2022-09-05T18:50:25.833Z,1.70
2022-09-05T18:52:30.694Z,1.85
2022-09-05T18:56:11.569Z,1.70
2022-09-05T18:58:22.165Z,1.40
2022-09-05T19:00:55.333Z,1.60
2022-09-05T19:03:31.554Z,1.58
2022-09-05T19:06:35.733Z,1.60
2022-09-05T19:08:56.558Z,1.60
2022-09-05T19:11:34.186Z,1.90
2022-09-05T19:14:26.678Z,2.13
2022-09-05T19:17:08.267Z,1.92
2022-09-05T19:23:10.803Z,1.90
2022-09-05T19:25:38.289Z,2.33
2022-09-05T19:36:46.779Z,2.00
2022-09-05T19:37:03.294Z,2.60
2022-09-05T19:37:09.436Z,2.55
2022-09-05T19:43:28.361Z,3.25
2022-09-05T19:47:40.605Z,3.08
2022-09-05T19:47:43.034Z,3.25
2022-09-05T19:48:19.778Z,2.72
2022-09-05T19:50:47.348Z,2.60
2022-09-05T19:53:18.101Z,2.80
2022-09-05T19:55:45.787Z,3.22
2022-09-05T19:58:28.998Z,3.42
2022-09-05T20:01:06.263Z,3.50
2022-09-05T20:03:38.301Z,3.30
2022-09-05T20:06:30.290Z,3.03
2022-09-05T20:09:09.521Z,3.10
2022-09-05T20:11:45.650Z,3.13
2022-09-05T20:14:31.015Z,2.97
2022-09-05T20:17:18.039Z,3.17
2022-09-05T20:19:45.342Z,4.10
2022-09-05T20:22:46.773Z,4.15
2022-09-05T20:25:08.590Z,3.97
2022-09-05T20:27:37.360Z,4.50
2022-09-05T20:30:15.011Z,3.95
2022-09-05T20:32:46.320Z,4.15
2022-09-05T20:38:04.766Z,4.05
2022-09-05T20:43:25.327Z,3.85
2022-09-05T20:43:29.306Z,3.88
2022-09-05T20:44:22.572Z,5.75
2022-09-05T20:50:44.389Z,5.00
2022-09-05T20:54:06.090Z,4.50
2022-09-05T20:54:16.968Z,4.60
2022-09-05T20:55:38.508Z,6.50
2022-09-05T20:58:15.235Z,7.90
2022-09-05T21:01:20.057Z,6.90
2022-09-05T21:03:45.460Z,6.63
2022-09-05T21:06:23.610Z,7.80
2022-09-05T21:08:52.325Z,7.85
2022-09-05T21:11:29.558Z,7.82
2022-09-05T21:13:59.367Z,7.35
2022-09-05T21:16:31.844Z,7.75
2022-09-05T21:18:58.514Z,8.20
2022-09-05T21:21:28.326Z,8.52
2022-09-05T21:24:17.534Z,7.82
2022-09-05T21:29:11.274Z,8.95
2022-09-05T21:31:43.879Z,7.20
2022-09-05T21:34:25.911Z,7.10
2022-09-05T21:36:59.201Z,7.13
2022-09-05T21:39:41.691Z,7.70
2022-09-05T21:42:25.508Z,8.20
2022-09-05T21:47:45.068Z,6.88
2022-09-05T21:48:00.804Z,6.20
2022-09-05T21:50:32.050Z,5.97
2022-09-05T21:54:35.185Z,6.85
2022-09-05T21:59:21.453Z,7.40
2022-09-05T21:59:32.701Z,7.13
2022-09-05T22:01:37.465Z,8.88
2022-09-05T22:04:10.165Z,7.30
2022-09-05T22:06:36.878Z,7.50
2022-09-05T22:09:13.016Z,6.80
2022-09-05T22:11:40.735Z,5.82
2022-09-05T22:14:08.978Z,6.47
2022-09-05T22:16:39.990Z,6.43
2022-09-05T22:19:12.713Z,7.20
2022-09-05T22:21:40.149Z,5.97
2022-09-05T22:24:09.612Z,6.00
2022-09-05T22:27:11.602Z,6.25
2022-09-05T22:29:34.543Z,6.10
2022-09-05T22:32:01.220Z,5.82
2022-09-05T22:34:30.864Z,6.32
2022-09-05T22:36:57.599Z,6.97
2022-09-05T22:39:37.317Z,6.47
2022-09-05T22:42:10.338Z,6.13
2022-09-05T22:44:39.390Z,5.45
2022-09-05T22:47:07.816Z,7.45
2022-09-05T22:49:36.434Z,6.60
2022-09-05T22:52:07.163Z,7.35
2022-09-05T22:54:35.223Z,7.68
2022-09-05T22:57:02.213Z,8.07
2022-09-05T22:59:28.720Z,7.53
2022-09-05T23:01:55.301Z,7.93
2022-09-05T23:04:21.984Z,8.20
2022-09-05T23:06:48.622Z,7.45
2022-09-05T23:09:15.127Z,7.63
2022-09-05T23:11:41.761Z,6.63
2022-09-05T23:14:08.255Z,6.40
2022-09-05T23:16:34.802Z,6.50
2022-09-05T23:19:01.535Z,6.43
2022-09-05T23:21:28.224Z,6.75
2022-09-05T23:23:54.762Z,6.82
2022-09-05T23:26:22.123Z,6.72
2022-09-05T23:28:48.666Z,7.13
2022-09-05T23:31:15.264Z,6.57
2022-09-05T23:33:42.245Z,6.85
2022-09-05T23:36:13.743Z,6.85
2022-09-05T23:38:43.915Z,7.47
2022-09-05T23:41:13.661Z,8.80
2022-09-05T23:43:40.483Z,7.88
2022-09-05T23:46:07.879Z,8.10
2022-09-05T23:48:35.133Z,7.30
2022-09-05T23:51:07.226Z,7.13
2022-09-05T23:53:34.255Z,6.95
2022-09-05T23:56:05.142Z,7.40
2022-09-05T23:58:32.462Z,7.57
